Time;durP1;ratioP1;P1;durP2;ratioP2;P2;SDS_P1;SDS_P2;PMS_P1;PMS_P2;Temp;Humidity;BMP_temperature;BMP_pressure;BME280_temperature;BME280_humidity;BME280_pressure;Samples;Min_cycle;Max_cycle;Signal;HPM_P1;HPM_P2
2022/06/29 00:01:08;;;;;;;2.10;1.90;;;;;;;14.92;67.41;98768.09;4136893;28;20113;-71
2022/06/29 00:03:08;;;;;;;4.13;2.30;;;;;;;14.91;67.31;98771.28;4135479;28;20523;-71
2022/06/29 00:05:09;;;;;;;3.90;2.15;;;;;;;14.92;66.83;98770.88;4137128;28;20394;-71
2022/06/29 00:07:11;;;;;;;3.78;2.25;;;;;;;14.91;66.97;98760.94;4135761;28;20073;-71
2022/06/29 00:09:11;;;;;;;5.75;2.20;;;;;;;14.96;67.04;98759.72;4135175;28;20065;-71
2022/06/29 00:11:11;;;;;;;2.20;2.00;;;;;;;14.99;66.07;98754.16;4136678;28;20034;-72
2022/06/29 00:13:12;;;;;;;4.95;2.15;;;;;;;15.04;66.04;98753.75;4136269;28;20486;-72
2022/06/29 00:15:13;;;;;;;3.80;1.98;;;;;;;15.08;65.31;98750.97;4135952;28;20034;-71
2022/06/29 00:17:14;;;;;;;3.38;2.20;;;;;;;15.07;65.85;98754.94;4136193;28;20326;-71
2022/06/29 00:19:14;;;;;;;3.13;2.10;;;;;;;15.07;66.03;98752.16;4136389;28;20041;-71
2022/06/29 00:21:14;;;;;;;3.53;1.80;;;;;;;15.06;65.86;98744.97;4136935;28;20084;-71
2022/06/29 00:23:15;;;;;;;2.85;1.98;;;;;;;15.04;66.21;98739.81;4135636;28;20033;-71
2022/06/29 00:25:15;;;;;;;2.53;2.10;;;;;;;15.04;66.30;98744.59;4136181;28;20030;-71
2022/06/29 00:27:16;;;;;;;4.25;2.35;;;;;;;15.01;66.55;98737.84;4135462;28;20045;-71
2022/06/29 00:29:16;;;;;;;3.35;2.08;;;;;;;14.98;67.00;98738.66;4135130;28;20119;-71
2022/06/29 00:31:17;;;;;;;2.90;2.50;;;;;;;14.96;67.41;98729.09;4135804;28;20376;-72
2022/06/29 00:33:17;;;;;;;2.63;2.00;;;;;;;14.95;66.58;98733.88;4134533;28;20029;-71
2022/06/29 00:35:17;;;;;;;2.22;1.98;;;;;;;14.96;67.17;98724.31;4135668;28;20549;-71
2022/06/29 00:37:18;;;;;;;3.03;2.10;;;;;;;14.92;67.81;98726.31;4133688;28;20449;-71
2022/06/29 00:39:18;;;;;;;3.13;2.30;;;;;;;14.96;66.51;98715.94;4135871;28;20030;-71
2022/06/29 00:41:19;;;;;;;3.15;2.20;;;;;;;14.92;67.85;98711.59;4136017;28;20021;-71
2022/06/29 00:43:19;;;;;;;3.70;2.03;;;;;;;14.98;66.84;98716.38;4134440;28;20025;-71
2022/06/29 00:45:19;;;;;;;3.10;2.40;;;;;;;14.93;67.89;98716.75;4139641;28;20049;-71
2022/06/29 00:47:21;;;;;;;2.92;1.92;;;;;;;14.96;67.50;98712.38;4138637;28;20033;-71
2022/06/29 00:49:24;;;;;;;4.43;2.17;;;;;;;14.91;67.76;98704.44;4136166;28;20057;-71
2022/06/29 00:51:27;;;;;;;2.30;2.10;;;;;;;14.96;66.78;98704.81;4139159;28;20057;-71
2022/06/29 00:53:32;;;;;;;2.97;2.40;;;;;;;14.92;67.67;98706.81;4139100;28;20537;-71
2022/06/29 00:55:39;;;;;;;2.42;1.95;;;;;;;14.95;67.21;98706.00;4139439;28;20041;-71
2022/06/29 00:57:45;;;;;;;3.53;1.90;;;;;;;14.92;67.91;98704.03;4139301;28;21107;-71
2022/06/29 00:59:48;;;;;;;2.40;2.20;;;;;;;14.87;68.41;98705.22;4136468;28;20042;-71
2022/06/29 01:01:49;;;;;;;4.03;2.55;;;;;;;14.86;69.27;98706.41;4139633;28;20042;-71
2022/06/29 01:03:50;;;;;;;5.70;2.33;;;;;;;14.90;70.13;98714.78;4138314;28;20049;-71
2022/06/29 01:05:50;;;;;;;3.88;2.10;;;;;;;14.83;69.73;98706.44;4139169;28;20477;-71
2022/06/29 01:07:51;;;;;;;3.25;2.30;;;;;;;14.80;69.10;98708.00;4139114;28;20026;-71
2022/06/29 01:09:51;;;;;;;2.58;2.10;;;;;;;14.80;68.94;98708.00;4136899;28;20036;-71
2022/06/29 01:11:51;;;;;;;4.43;2.38;;;;;;;14.77;69.09;98705.25;4138472;28;20034;-70
2022/06/29 01:13:52;;;;;;;2.60;2.20;;;;;;;14.72;69.35;98705.66;4136579;28;20460;-70
2022/06/29 01:15:52;;;;;;;3.20;1.98;;;;;;;14.73;68.95;98707.22;4139678;28;20482;-70
2022/06/29 01:17:52;;;;;;;2.80;2.15;;;;;;;14.72;68.93;98714.78;4138086;28;20429;-70
2022/06/29 01:19:53;;;;;;;3.10;2.03;;;;;;;14.72;68.84;98714.78;4138096;28;20641;-70
2022/06/29 01:21:55;;;;;;;6.32;2.47;;;;;;;14.77;68.08;98705.25;4136996;28;20462;-70
2022/06/29 01:23:55;;;;;;;4.03;2.30;;;;;;;14.78;68.53;98710.41;4136993;28;20029;-70
2022/06/29 01:25:55;;;;;;;3.33;2.30;;;;;;;14.76;68.62;98704.47;4137580;28;20046;-70
2022/06/29 01:27:56;;;;;;;3.03;2.20;;;;;;;14.74;68.53;98706.06;4137956;28;20466;-70
2022/06/29 01:29:57;;;;;;;2.58;2.10;;;;;;;14.72;68.59;98703.66;4137263;28;20034;-70
2022/06/29 01:31:58;;;;;;;3.38;2.15;;;;;;;14.71;69.02;98704.84;4137275;28;20030;-71
2022/06/29 01:34:01;;;;;;;3.15;2.10;;;;;;;14.73;68.15;98708.06;4138576;28;20050;-70
2022/06/29 01:36:01;;;;;;;5.15;2.70;;;;;;;14.73;67.87;98696.09;4139572;28;20025;-70
2022/06/29 01:38:01;;;;;;;9.60;2.80;;;;;;;14.76;67.55;98693.31;4136599;28;20045;-70
2022/06/29 01:40:03;;;;;;;5.75;2.50;;;;;;;14.76;67.66;98698.88;4137646;28;20052;-70
2022/06/29 01:42:05;;;;;;;2.88;2.28;;;;;;;14.75;67.59;98686.16;4138566;28;20237;-70
2022/06/29 01:44:05;;;;;;;4.43;2.60;;;;;;;14.71;68.42;98687.34;4138429;28;20021;-70
2022/06/29 01:46:06;;;;;;;3.60;2.17;;;;;;;14.65;69.15;98692.56;4137634;28;20048;-69
2022/06/29 01:48:07;;;;;;;3.80;2.20;;;;;;;14.63;69.89;98696.91;4138324;28;20113;-70
2022/06/29 01:50:07;;;;;;;2.95;2.10;;;;;;;14.57;70.36;98691.75;4138057;28;20475;-70
2022/06/29 01:52:08;;;;;;;2.47;2.15;;;;;;;14.54;70.87;98697.31;4137733;28;20040;-70
2022/06/29 01:54:09;;;;;;;2.30;2.00;;;;;;;14.48;70.79;98687.78;4138517;28;20034;-70
2022/06/29 01:56:09;;;;;;;3.90;2.15;;;;;;;14.47;71.46;98691.75;4136246;28;20053;-70
2022/06/29 01:58:09;;;;;;;3.13;2.30;;;;;;;14.44;72.03;98684.19;4137625;28;20255;-70
2022/06/29 02:00:10;;;;;;;4.03;2.20;;;;;;;14.42;71.91;98686.56;4136689;28;20034;-70
2022/06/29 02:02:10;;;;;;;3.92;2.45;;;;;;;14.37;72.05;98681.41;4138472;28;20140;-70
2022/06/29 02:04:11;;;;;;;3.58;2.30;;;;;;;14.31;72.21;98676.25;4138262;28;20105;-70
2022/06/29 02:06:12;;;;;;;4.45;2.35;;;;;;;14.27;72.11;98678.22;4137048;28;20470;-70
2022/06/29 02:08:12;;;;;;;4.22;2.55;;;;;;;14.24;72.36;98667.09;4138997;28;20366;-70
2022/06/29 02:10:12;;;;;;;2.88;2.47;;;;;;;14.22;72.52;98663.91;4136312;28;20205;-70
2022/06/29 02:12:13;;;;;;;4.00;2.33;;;;;;;14.22;72.63;98667.47;4136642;28;20184;-70
2022/06/29 02:14:13;;;;;;;2.65;2.25;;;;;;;14.17;72.48;98667.09;4137313;28;20109;-70
2022/06/29 02:16:13;;;;;;;4.63;3.13;;;;;;;14.17;73.04;98667.09;4137435;28;20277;-70
2022/06/29 02:18:14;;;;;;;2.95;2.50;;;;;;;14.11;72.86;98680.59;4137648;28;20473;-70
2022/06/29 02:20:14;;;;;;;3.65;2.80;;;;;;;14.10;72.14;98675.44;4137248;28;20069;-70
2022/06/29 02:22:14;;;;;;;3.35;2.80;;;;;;;14.09;72.38;98668.28;4138113;28;20038;-70
2022/06/29 02:24:15;;;;;;;11.55;2.88;;;;;;;14.08;72.48;98675.03;4136864;28;20406;-70
2022/06/29 02:26:15;;;;;;;3.75;2.75;;;;;;;14.02;72.66;98667.09;4137779;28;20413;-70
2022/06/29 02:28:16;;;;;;;3.30;2.90;;;;;;;14.05;71.73;98668.25;4137676;28;20210;-70
2022/06/29 02:30:16;;;;;;;3.65;3.00;;;;;;;14.04;71.86;98659.13;4136179;28;20041;-70
2022/06/29 02:34:46;;;;;;;3.80;3.13;;;;;;;14.10;71.95;98655.97;4136919;28;20524;-70
2022/06/29 02:36:46;;;;;;;6.22;3.05;;;;;;;14.09;71.63;98659.94;4137933;28;20026;-70
2022/06/29 02:38:47;;;;;;;4.05;3.00;;;;;;;14.08;71.89;98658.34;4135021;28;20504;-70
2022/06/29 02:40:47;;;;;;;5.00;2.80;;;;;;;14.05;71.85;98657.13;4137260;28;20045;-70
2022/06/29 02:42:47;;;;;;;4.57;2.92;;;;;;;14.02;72.30;98657.94;4137656;28;20059;-70
2022/06/29 02:44:48;;;;;;;4.78;2.90;;;;;;;14.05;72.70;98657.94;4136178;28;20033;-70
2022/06/29 02:46:48;;;;;;;4.03;2.90;;;;;;;14.03;72.45;98662.31;4137493;28;20026;-70
2022/06/29 02:48:48;;;;;;;3.72;3.30;;;;;;;14.03;72.06;98667.88;4136605;28;20053;-70
2022/06/29 02:50:49;;;;;;;3.88;3.17;;;;;;;14.00;73.19;98665.91;4137068;28;20149;-70
2022/06/29 02:52:49;;;;;;;3.63;2.45;;;;;;;13.98;72.76;98657.13;4136709;28;20142;-70
2022/06/29 02:54:49;;;;;;;4.30;2.70;;;;;;;13.97;73.16;98661.91;4137163;28;20029;-70
2022/06/29 02:56:50;;;;;;;4.18;2.70;;;;;;;13.94;73.55;98657.13;4136790;28;20474;-70
2022/06/29 02:58:50;;;;;;;8.13;2.92;;;;;;;13.93;73.90;98660.31;4134501;28;20429;-70
2022/06/29 03:00:50;;;;;;;5.35;3.10;;;;;;;13.88;74.07;98657.94;4137078;28;20072;-70
2022/06/29 03:02:51;;;;;;;3.25;2.90;;;;;;;13.86;74.53;98663.09;4137209;28;20030;-70
2022/06/29 03:04:51;;;;;;;4.47;3.08;;;;;;;13.80;74.67;98654.34;4136612;28;20038;-70
2022/06/29 03:06:51;;;;;;;5.13;3.22;;;;;;;13.82;75.43;98656.72;4136642;28;20037;-70
2022/06/29 03:08:52;;;;;;;4.57;3.03;;;;;;;13.79;75.56;98669.44;4135938;28;20313;-70
2022/06/29 03:10:52;;;;;;;3.83;3.00;;;;;;;13.74;76.18;98678.19;4136724;28;20496;-70
2022/06/29 03:12:52;;;;;;;3.97;3.35;;;;;;;13.70;76.14;98680.16;4136518;28;20549;-70
2022/06/29 03:14:53;;;;;;;5.82;3.20;;;;;;;13.67;75.94;98675.38;4135576;28;20038;-70
2022/06/29 03:16:53;;;;;;;3.70;2.80;;;;;;;13.67;76.28;98690.06;4136588;28;20530;-70
2022/06/29 03:18:54;;;;;;;3.63;3.10;;;;;;;13.63;76.78;98686.47;4135249;28;20030;-70
2022/06/29 03:20:54;;;;;;;4.03;2.90;;;;;;;13.61;76.48;98663.03;4135961;28;20105;-70
2022/06/29 03:22:55;;;;;;;5.15;3.15;;;;;;;13.61;76.40;98657.50;4136559;28;20037;-70
2022/06/29 03:24:55;;;;;;;3.40;2.90;;;;;;;13.62;76.27;98661.84;4136610;28;20033;-70
2022/06/29 03:26:56;;;;;;;4.07;3.08;;;;;;;13.69;75.02;98673.00;4136290;28;20378;-70
2022/06/29 03:28:56;;;;;;;4.70;3.15;;;;;;;13.72;74.63;98667.44;4135755;28;20033;-70
2022/06/29 03:30:57;;;;;;;3.53;2.47;;;;;;;13.74;75.32;98670.63;4136969;28;20034;-70
2022/06/29 03:32:57;;;;;;;3.67;3.28;;;;;;;13.72;75.33;98669.41;4137027;28;20033;-70
2022/06/29 03:34:58;;;;;;;3.67;3.28;;;;;;;13.75;74.66;98669.44;4136549;28;20029;-70
2022/06/29 03:36:58;;;;;;;5.28;3.10;;;;;;;13.75;74.14;98655.53;4136645;28;20129;-70
2022/06/29 03:38:58;;;;;;;4.22;3.08;;;;;;;13.76;74.35;98651.56;4134691;28;20052;-70
2022/06/29 03:40:59;;;;;;;3.58;2.97;;;;;;;13.76;75.24;98640.44;4134971;28;20045;-70
2022/06/29 03:42:59;;;;;;;4.47;3.10;;;;;;;13.76;75.79;98648.78;4136720;28;20049;-70
2022/06/29 03:44:59;;;;;;;5.13;3.72;;;;;;;13.79;75.31;98652.75;4136666;28;20033;-70
2022/06/29 03:47:00;;;;;;;3.60;3.30;;;;;;;13.85;75.05;98656.75;4137298;28;20032;-70
2022/06/29 03:49:00;;;;;;;4.47;3.22;;;;;;;13.88;74.50;98660.69;4136036;28;20037;-70
2022/06/29 03:51:00;;;;;;;4.05;3.28;;;;;;;13.88;75.27;98660.69;4136891;28;20189;-70
2022/06/29 03:53:01;;;;;;;5.45;3.28;;;;;;;13.88;75.69;98657.94;4136210;28;20733;-70
2022/06/29 03:55:02;;;;;;;7.55;3.30;;;;;;;13.90;74.54;98653.56;4136869;28;20091;-70
2022/06/29 03:57:03;;;;;;;4.55;3.38;;;;;;;13.93;74.61;98652.78;4135650;28;20662;-70
2022/06/29 03:59:03;;;;;;;9.15;3.00;;;;;;;13.99;73.96;98651.19;4133889;28;20033;-70
2022/06/29 04:01:04;;;;;;;3.97;2.95;;;;;;;14.05;73.52;98660.72;4136101;28;20423;-70
2022/06/29 04:03:04;;;;;;;4.85;3.13;;;;;;;14.05;75.60;98662.69;4135331;28;20084;-70
2022/06/29 04:05:05;;;;;;;5.78;3.10;;;;;;;14.10;73.72;98662.31;4135567;28;20034;-70
2022/06/29 04:07:05;;;;;;;9.00;3.78;;;;;;;14.13;73.25;98655.94;4135868;28;20065;-70
2022/06/29 04:09:06;;;;;;;4.50;3.03;;;;;;;14.22;72.92;98658.34;4135334;28;20066;-70
2022/06/29 04:11:48;;;;;;;11.77;4.13;;;;;;;14.25;72.84;98661.13;4137195;28;20324;-70
2022/06/29 04:13:26;;;;;;;7.60;3.95;;;;;;;14.28;73.95;98662.31;4135383;28;20041;-70
2022/06/29 04:15:27;;;;;;;6.72;3.92;;;;;;;14.26;73.80;98661.94;4133373;28;20046;-70
2022/06/29 04:17:27;;;;;;;8.20;4.20;;;;;;;14.21;74.21;98667.88;4135393;28;20022;-69
2022/06/29 04:19:28;;;;;;;7.93;4.22;;;;;;;14.21;74.11;98657.53;4135341;28;20293;-70
2022/06/29 04:21:28;;;;;;;5.57;4.00;;;;;;;14.17;75.16;98651.19;4138542;28;20084;-70
2022/06/29 04:23:28;;;;;;;9.57;3.80;;;;;;;14.24;73.46;98661.53;4137234;28;20481;-70
2022/06/29 04:25:29;;;;;;;7.82;3.70;;;;;;;14.29;74.66;98667.47;4137243;28;20424;-70
2022/06/29 04:27:29;;;;;;;10.35;3.90;;;;;;;14.30;74.56;98660.72;4137588;28;20026;-70
2022/06/29 04:29:29;;;;;;;7.05;3.85;;;;;;;14.31;74.33;98658.72;4138925;28;20022;-70
2022/06/29 04:31:30;;;;;;;6.20;4.07;;;;;;;14.34;74.55;98655.94;4138798;28;20070;-70
2022/06/29 04:33:30;;;;;;;5.38;3.60;;;;;;;14.41;74.36;98663.50;4139032;28;20060;-70
2022/06/29 04:35:30;;;;;;;7.18;3.88;;;;;;;14.42;74.25;98665.09;4138934;28;20029;-70
2022/06/29 04:37:31;;;;;;;8.02;3.38;;;;;;;14.43;74.73;98654.75;4138614;28;20036;-70
2022/06/29 04:39:31;;;;;;;5.85;3.72;;;;;;;14.44;75.15;98657.13;4139084;28;20026;-70
2022/06/29 04:41:31;;;;;;;8.32;3.80;;;;;;;14.40;75.24;98656.34;4138833;28;20073;-70
2022/06/29 04:43:32;;;;;;;6.70;3.60;;;;;;;14.41;75.43;98655.16;4139543;28;20026;-70
2022/06/29 04:47:51;;;;;;;5.38;3.45;;;;;;;14.45;75.38;98646.78;4138081;28;20033;-70
2022/06/29 04:49:51;;;;;;;8.40;4.07;;;;;;;14.47;75.04;98639.66;4138443;28;20038;-70
2022/06/29 04:51:52;;;;;;;8.23;3.05;;;;;;;14.51;75.19;98640.47;4086186;28;20046;-70
2022/06/29 04:53:56;;;;;;;7.47;3.35;;;;;;;14.55;74.72;98632.88;4138074;28;20107;-70
2022/06/29 04:55:56;;;;;;;10.32;3.95;;;;;;;14.58;75.28;98629.31;4137262;28;20418;-70
2022/06/29 04:57:56;;;;;;;9.90;4.05;;;;;;;14.64;76.12;98640.81;4138707;28;20033;-70
2022/06/29 04:59:57;;;;;;;6.00;4.10;;;;;;;14.66;76.29;98632.88;4138761;28;20116;-70
2022/06/29 05:01:57;;;;;;;6.03;4.43;;;;;;;14.70;76.25;98633.63;4138533;28;20068;-70
2022/06/29 05:04:01;;;;;;;7.28;4.18;;;;;;;14.74;76.20;98639.22;4138987;28;20036;-70
2022/06/29 05:06:02;;;;;;;7.05;3.45;;;;;;;14.79;75.57;98638.78;4137999;28;20037;-70
2022/06/29 05:08:03;;;;;;;9.75;4.72;;;;;;;14.82;74.97;98624.06;4137531;28;20536;-70
2022/06/29 05:10:04;;;;;;;5.75;3.97;;;;;;;14.88;74.35;98628.00;4138424;28;20446;-70
2022/06/29 05:12:04;;;;;;;8.60;4.22;;;;;;;14.92;73.57;98628.03;4139078;28;20459;-70
2022/06/29 05:14:05;;;;;;;9.75;4.15;;;;;;;14.96;72.29;98621.22;4138951;28;20367;-70
2022/06/29 05:16:05;;;;;;;6.47;4.25;;;;;;;15.03;73.03;98632.34;4138448;28;20037;-70
2022/06/29 05:18:06;;;;;;;12.55;4.95;;;;;;;15.04;72.03;98624.78;4139727;28;20121;-70
2022/06/29 05:20:08;;;;;;;4.55;3.65;;;;;;;15.06;71.76;98625.16;4138005;28;20030;-70
2022/06/29 05:22:08;;;;;;;9.30;5.22;;;;;;;15.13;71.31;98625.13;4137667;28;20371;-70
2022/06/29 05:24:09;;;;;;;4.95;3.45;;;;;;;15.13;71.06;98614.78;4137546;28;20096;-70
2022/06/29 05:26:09;;;;;;;7.05;4.57;;;;;;;15.17;70.28;98615.56;4138687;28;20084;-70
2022/06/29 05:28:11;;;;;;;12.60;4.78;;;;;;;15.21;70.06;98617.53;4139530;28;20038;-70
2022/06/29 05:30:12;;;;;;;6.32;4.00;;;;;;;15.25;70.02;98621.13;4136466;28;20450;-70
2022/06/29 05:32:12;;;;;;;9.32;4.40;;;;;;;15.29;70.38;98617.09;4138225;28;20116;-71
2022/06/29 05:34:12;;;;;;;13.93;4.60;;;;;;;15.34;70.58;98621.47;4136859;28;20490;-70
2022/06/29 05:36:13;;;;;;;6.93;3.50;;;;;;;15.38;70.27;98616.66;4135993;28;20022;-70
2022/06/29 05:38:13;;;;;;;4.93;3.72;;;;;;;15.42;69.20;98618.22;4137233;28;20034;-70
2022/06/29 05:40:13;;;;;;;6.05;3.78;;;;;;;15.47;70.01;98619.78;4136678;28;20287;-70
2022/06/29 05:42:14;;;;;;;7.10;4.35;;;;;;;15.49;69.23;98617.41;4137537;28;20026;-70
2022/06/29 05:44:14;;;;;;;5.18;3.20;;;;;;;15.52;69.46;98619.38;4136957;28;20044;-70
2022/06/29 05:46:15;;;;;;;4.72;3.17;;;;;;;15.56;69.92;98622.16;4136951;28;20025;-70
2022/06/29 05:48:16;;;;;;;5.90;3.63;;;;;;;15.58;69.74;98616.94;4137207;28;20034;-70
2022/06/29 05:50:16;;;;;;;3.97;3.03;;;;;;;15.62;69.75;98615.72;4135874;28;20233;-70
2022/06/29 05:52:16;;;;;;;5.43;3.53;;;;;;;15.69;69.01;98623.28;4138175;28;20181;-71
2022/06/29 05:54:17;;;;;;;4.60;3.28;;;;;;;15.71;68.79;98618.06;4138054;28;20038;-71
2022/06/29 05:56:17;;;;;;;4.55;3.30;;;;;;;15.77;68.09;98612.84;4137282;28;20045;-70
2022/06/29 05:58:20;;;;;;;5.75;3.28;;;;;;;15.83;67.94;98627.97;4137334;28;20034;-70
2022/06/29 06:00:21;;;;;;;6.22;3.67;;;;;;;15.86;68.74;98630.72;4136877;28;20049;-70
2022/06/29 06:02:21;;;;;;;4.80;3.92;;;;;;;15.92;69.03;98631.09;4136744;28;20074;-70
2022/06/29 06:04:22;;;;;;;5.03;3.58;;;;;;;15.97;68.64;98628.66;4136144;28;20406;-70
2022/06/29 06:06:22;;;;;;;8.35;3.95;;;;;;;16.02;67.17;98624.63;4136886;28;20029;-70
2022/06/29 06:08:23;;;;;;;6.32;3.88;;;;;;;16.06;66.81;98633.78;4134068;28;20062;-70
2022/06/29 06:10:23;;;;;;;8.68;3.75;;;;;;;16.11;66.34;98627.72;4132926;28;20113;-70
2022/06/29 06:12:24;;;;;;;8.38;3.78;;;;;;;16.14;67.07;98624.13;4136296;28;20057;-70
2022/06/29 06:14:24;;;;;;;6.00;3.40;;;;;;;16.16;66.77;98635.69;4135705;28;20017;-70
2022/06/29 06:16:25;;;;;;;5.97;4.20;;;;;;;16.14;66.54;98626.13;4136740;28;20033;-70
2022/06/29 06:18:25;;;;;;;4.85;3.28;;;;;;;16.17;66.59;98626.09;4136868;28;20422;-70
2022/06/29 06:20:25;;;;;;;5.32;3.80;;;;;;;16.17;66.45;98616.94;4136693;28;20030;-70
2022/06/29 06:22:26;;;;;;;4.80;4.25;;;;;;;16.20;65.92;98630.84;4136843;28;20112;-70
2022/06/29 06:24:26;;;;;;;4.32;3.42;;;;;;;16.20;65.93;98621.69;4138110;28;20050;-70
2022/06/29 06:26:26;;;;;;;4.93;3.63;;;;;;;16.23;66.22;98630.03;4136865;28;20033;-70
2022/06/29 06:28:26;;;;;;;4.40;3.35;;;;;;;16.22;66.38;98622.88;4137284;28;20097;-70
2022/06/29 06:30:27;;;;;;;5.95;4.03;;;;;;;16.22;66.75;98620.06;4137372;28;20665;-70
2022/06/29 06:32:28;;;;;;;4.28;3.58;;;;;;;16.24;66.99;98620.44;4133493;28;20037;-70
2022/06/29 06:34:28;;;;;;;4.22;3.42;;;;;;;16.31;67.21;98629.97;4136354;28;20025;-70
2022/06/29 06:36:29;;;;;;;6.60;3.78;;;;;;;16.32;67.88;98623.97;4135550;28;20345;-70
2022/06/29 06:38:29;;;;;;;5.38;3.90;;;;;;;16.41;68.25;98629.88;4134326;28;20112;-70
2022/06/29 06:42:48;;;;;;;3.92;3.53;;;;;;;16.51;68.40;98640.13;4135876;28;20520;-70
2022/06/29 06:44:49;;;;;;;6.68;4.20;;;;;;;16.54;68.56;98639.28;4136663;28;20033;-70
2022/06/29 06:46:49;;;;;;;7.50;3.90;;;;;;;16.57;68.52;98634.91;4137219;28;20037;-70
2022/06/29 06:48:50;;;;;;;4.85;4.35;;;;;;;16.60;69.04;98648.03;4136979;28;20072;-70
2022/06/29 06:50:51;;;;;;;4.63;3.80;;;;;;;16.62;69.07;98656.00;4135948;28;20131;-71
2022/06/29 06:52:51;;;;;;;6.07;4.10;;;;;;;16.60;68.50;98650.81;4137899;28;20489;-71
2022/06/29 06:54:51;;;;;;;6.78;4.60;;;;;;;16.63;68.70;98651.97;4136943;28;20276;-71
2022/06/29 06:56:52;;;;;;;5.15;4.05;;;;;;;16.61;68.66;98655.19;4137117;28;20033;-71
2022/06/29 06:58:52;;;;;;;6.40;4.05;;;;;;;16.64;68.91;98659.97;4136686;28;20455;-71
2022/06/29 07:00:52;;;;;;;7.72;4.97;;;;;;;16.66;69.40;98656.75;4137640;28;20045;-71
2022/06/29 07:02:53;;;;;;;6.43;4.30;;;;;;;16.64;69.38;98657.19;4135041;28;20627;-70
2022/06/29 07:04:53;;;;;;;7.85;4.95;;;;;;;16.66;69.02;98663.13;4136503;28;20117;-70
2022/06/29 07:06:53;;;;;;;6.13;4.95;;;;;;;16.66;69.66;98659.56;4136577;28;20026;-71
2022/06/29 07:08:54;;;;;;;9.48;4.38;;;;;;;16.70;70.33;98651.94;4134963;28;20587;-70
2022/06/29 07:10:55;;;;;;;5.80;5.15;;;;;;;16.69;70.41;98650.38;4136569;28;20037;-71
2022/06/29 07:12:55;;;;;;;8.10;4.47;;;;;;;16.77;70.55;98646.28;4137208;28;20030;-71
2022/06/29 07:14:56;;;;;;;6.45;4.88;;;;;;;16.81;70.67;98652.66;4137869;28;20026;-71
2022/06/29 07:16:56;;;;;;;7.72;5.25;;;;;;;16.86;71.17;98643.78;4136535;28;20053;-71
2022/06/29 07:18:56;;;;;;;6.45;4.90;;;;;;;16.92;70.54;98650.53;4136360;28;20021;-71
2022/06/29 07:20:57;;;;;;;5.57;4.50;;;;;;;17.00;71.02;98645.66;4136382;28;20092;-71
2022/06/29 07:22:57;;;;;;;7.82;5.28;;;;;;;17.05;71.12;98648.00;4136464;28;20309;-71
2022/06/29 07:24:58;;;;;;;6.75;5.15;;;;;;;17.10;70.56;98634.31;4137481;28;20285;-71
2022/06/29 07:26:58;;;;;;;9.23;5.38;;;;;;;17.15;71.83;98632.28;4137228;28;20053;-71
2022/06/29 07:28:59;;;;;;;8.75;5.68;;;;;;;17.21;72.60;98636.19;4135631;28;20033;-71
2022/06/29 07:30:59;;;;;;;6.32;4.85;;;;;;;17.29;71.40;98634.88;4136816;28;20125;-71
2022/06/29 07:33:00;;;;;;;8.77;5.55;;;;;;;17.37;71.50;98631.56;4136232;28;20521;-71
2022/06/29 07:35:00;;;;;;;8.75;5.05;;;;;;;17.48;71.24;98631.44;4136176;28;20090;-71
2022/06/29 07:37:00;;;;;;;6.85;5.05;;;;;;;17.56;69.98;98624.53;4135975;28;20048;-71
2022/06/29 07:39:01;;;;;;;6.70;5.65;;;;;;;17.65;70.59;98632.41;4134699;28;20076;-71
2022/06/29 07:41:01;;;;;;;7.32;5.70;;;;;;;17.68;71.50;98631.56;4137414;28;20034;-71
2022/06/29 07:43:02;;;;;;;8.32;5.18;;;;;;;17.79;69.71;98642.63;4135603;28;20030;-71
2022/06/29 07:45:03;;;;;;;7.20;5.82;;;;;;;17.84;72.99;98640.16;4137384;28;20470;-71
2022/06/29 07:47:03;;;;;;;8.68;6.45;;;;;;;17.78;71.33;98633.44;4136397;28;20038;-71
2022/06/29 07:49:04;;;;;;;9.90;6.63;;;;;;;17.81;72.80;98632.59;4135477;28;20124;-71
2022/06/29 07:51:04;;;;;;;7.72;5.95;;;;;;;17.89;70.97;98638.88;4136845;28;20072;-71
2022/06/29 07:53:04;;;;;;;9.10;6.20;;;;;;;17.95;70.46;98626.78;4137041;28;20221;-71
2022/06/29 07:55:05;;;;;;;8.82;6.00;;;;;;;18.06;71.31;98626.63;4136318;28;20470;-71
2022/06/29 07:57:05;;;;;;;9.05;6.38;;;;;;;18.22;71.76;98621.16;4135411;28;20398;-71
2022/06/29 07:59:05;;;;;;;7.80;6.20;;;;;;;18.36;72.62;98617.28;4136038;28;20439;-71
2022/06/29 08:01:06;;;;;;;8.60;6.10;;;;;;;18.52;72.49;98617.41;4137397;28;20038;-71
2022/06/29 08:03:07;;;;;;;11.57;6.70;;;;;;;18.70;71.81;98616.31;4136643;28;20470;-71
2022/06/29 08:05:08;;;;;;;8.48;6.65;;;;;;;18.82;73.12;98617.69;4136816;28;20026;-71
2022/06/29 08:07:08;;;;;;;8.40;6.38;;;;;;;19.00;72.06;98623.75;4135878;28;20450;-71
2022/06/29 08:09:09;;;;;;;8.25;6.35;;;;;;;19.22;68.63;98618.50;4136325;28;20604;-71
2022/06/29 08:11:09;;;;;;;8.50;6.85;;;;;;;19.46;68.41;98617.16;4136107;28;20356;-71
2022/06/29 08:13:09;;;;;;;9.90;6.40;;;;;;;19.68;67.59;98614.69;4137237;28;20488;-72
2022/06/29 08:15:10;;;;;;;7.15;5.93;;;;;;;19.93;67.42;98614.09;4135489;28;20092;-72
2022/06/29 08:17:11;;;;;;;8.10;6.72;;;;;;;20.02;65.21;98605.06;4136486;28;20070;-72
2022/06/29 08:19:11;;;;;;;8.73;6.85;;;;;;;20.07;65.02;98599.72;4135141;28;20029;-72
2022/06/29 08:21:11;;;;;;;7.57;6.88;;;;;;;20.08;66.26;98609.72;4136051;28;20048;-71
2022/06/29 08:23:12;;;;;;;7.72;6.68;;;;;;;20.30;66.01;98606.38;4136534;28;20458;-71
2022/06/29 08:25:13;;;;;;;9.27;6.43;;;;;;;20.43;65.60;98596.00;4136523;28;20053;-71
2022/06/29 08:27:14;;;;;;;11.77;7.20;;;;;;;20.56;66.61;98596.88;4136890;28;20132;-71
2022/06/29 08:29:14;;;;;;;10.98;7.40;;;;;;;20.59;64.94;98595.22;4134629;28;20474;-71
2022/06/29 08:31:14;;;;;;;8.57;7.00;;;;;;;20.63;65.84;98585.47;4136248;28;20057;-72
2022/06/29 08:33:15;;;;;;;9.25;6.90;;;;;;;20.73;65.54;98594.81;4135745;28;20030;-72
2022/06/29 08:35:16;;;;;;;12.82;6.95;;;;;;;20.76;65.97;98585.50;4136878;28;20037;-72
2022/06/29 08:37:18;;;;;;;10.60;7.55;;;;;;;20.77;66.13;98575.84;4136105;28;20037;-71
2022/06/29 08:39:18;;;;;;;7.57;6.78;;;;;;;20.93;64.93;98589.03;4135695;28;20034;-72
2022/06/29 08:41:19;;;;;;;10.02;7.20;;;;;;;20.93;64.28;98586.22;4135699;28;20517;-72
2022/06/29 08:43:20;;;;;;;10.25;7.22;;;;;;;20.80;65.28;98591.03;4136287;28;20029;-71
2022/06/29 08:45:20;;;;;;;9.05;6.60;;;;;;;20.79;64.67;98590.25;4136159;28;20121;-71
2022/06/29 08:47:21;;;;;;;8.50;6.88;;;;;;;20.61;65.15;98581.53;4136384;28;20113;-71
2022/06/29 08:49:21;;;;;;;9.02;7.18;;;;;;;20.65;65.13;98585.00;4135837;28;20107;-71
2022/06/29 08:51:22;;;;;;;8.43;7.22;;;;;;;20.67;65.48;98583.31;4135457;28;20477;-71
2022/06/29 08:53:23;;;;;;;9.20;6.95;;;;;;;20.71;65.40;98592.47;4136534;28;20034;-71
2022/06/29 08:55:24;;;;;;;7.47;6.78;;;;;;;20.72;65.76;98590.44;4137156;28;20046;-71
2022/06/29 08:57:25;;;;;;;11.57;7.37;;;;;;;20.74;65.06;98579.53;4136135;28;20025;-71
2022/06/29 08:59:26;;;;;;;9.77;7.38;;;;;;;20.75;65.40;98581.09;4134438;28;20038;-71
2022/06/29 09:01:28;;;;;;;10.43;6.80;;;;;;;20.89;65.57;98583.53;4135858;28;20180;-71
2022/06/29 09:03:29;;;;;;;12.75;7.80;;;;;;;21.04;66.35;98590.31;4134518;28;20034;-72
2022/06/29 09:05:29;;;;;;;11.15;7.88;;;;;;;21.04;66.56;98581.88;4135864;28;20044;-72
2022/06/29 09:07:30;;;;;;;8.48;7.38;;;;;;;21.19;66.24;98585.06;4139364;28;20030;-71
2022/06/29 09:09:30;;;;;;;8.77;7.20;;;;;;;21.21;64.91;98582.59;4138880;28;20257;-71
2022/06/29 09:11:31;;;;;;;8.80;7.65;;;;;;;21.20;65.01;98585.88;4138730;28;20061;-71
2022/06/29 09:13:31;;;;;;;11.32;7.03;;;;;;;21.36;66.08;98588.63;4139526;28;20537;-71
2022/06/29 09:15:36;;;;;;;9.18;8.10;;;;;;;21.59;65.67;98588.28;4138864;28;20029;-71
2022/06/29 09:17:39;;;;;;;14.27;7.55;;;;;;;21.51;65.57;98584.13;4137607;28;20026;-71
2022/06/29 09:19:39;;;;;;;8.55;7.70;;;;;;;21.81;65.54;98585.59;4138490;28;20088;-72
2022/06/29 09:21:47;;;;;;;8.85;7.28;;;;;;;21.99;64.20;98573.75;4138860;28;20042;-71
2022/06/29 09:23:48;;;;;;;8.90;8.00;;;;;;;22.08;63.63;98576.69;4139276;28;20510;-72
2022/06/29 09:25:48;;;;;;;9.50;7.70;;;;;;;22.17;63.64;98561.13;4138584;28;20349;-72
2022/06/29 09:27:48;;;;;;;8.98;8.07;;;;;;;22.31;64.91;98564.25;4138810;28;20049;-72
2022/06/29 09:29:49;;;;;;;9.27;8.38;;;;;;;22.23;64.35;98565.72;4136937;28;20037;-71
2022/06/29 09:32:19;;;;;;;11.95;8.75;;;;;;;22.18;64.50;98563.50;4137712;28;20034;-72
2022/06/29 09:34:19;;;;;;;10.32;8.48;;;;;;;22.17;65.87;98563.94;4137628;28;20045;-71